MMGL/GDL METAR and TAF weather

Enter ICAO airport designator
Station Type Date Time Source
MMGL METAR 2021/10/24 20:47 UTC NOAA

MMGL 242047Z 00000KT 4SM SCT015 BKN100 OVC300 25/13 A3008 RMK SLP071 57023 912 8/137 HZY/ISOL SC


Station Type Date Time Source
MMGL Decoded METAR 2021/10/24 20:47 UTC NOAA

Don Miguel / Guadalaj, Mexico (MMGL) 20-31N 103-19W
Oct 24, 2021 - 04:47 PM EDT / 2021.10.24 2047 UTC
Wind: Calm:0
Visibility: 4 mile(s):0
Sky conditions: overcast
Temperature: 77 F (25 C)
Dew Point: 55 F (13 C)
Relative Humidity: 47%
Pressure (altimeter): 30.08 in. Hg (1018 hPa)
Pressure tendency: 0.07 inches (2.3 hPa) lower than three hours ago
ob: MMGL 242047Z 00000KT 4SM SCT015 BKN100 OVC300 25/13 A3008 RMK SLP071 57023 912 8/137 HZY/ISOL SC
cycle: 21

Station Type Date Time Source
MMGL TAF 2021/10/24 18:12 UTC NOAA

TAF MMGL 241704Z 2418/2524 08006KT 5SM HZ BKN010 OVC080 TX23/2421Z TN14/2512Z
TEMPO 2421/2501 4SM RA BKN010CB OVC080
FM250200 06005KT 6SM HZ BKN015 OVC080
BECMG 2505/2506 5SM -RA
TEMPO 2510/2514 3SM -RA BR BKN015 OVC080
FM251600 06006KT 6SM HZ BKN020 BKN080

Example: see airport list